createdAt,value
2023-09-15T00:00:33.529Z,6.43
2023-09-15T00:01:40.719Z,5.72
2023-09-15T00:02:43.517Z,4.80
2023-09-15T00:03:48.877Z,8.02
2023-09-15T00:04:51.622Z,5.15
2023-09-15T00:05:54.385Z,4.90
2023-09-15T00:06:57.076Z,4.32
2023-09-15T00:07:59.759Z,6.10
2023-09-15T00:09:15.810Z,5.47
2023-09-15T00:10:20.457Z,5.35
2023-09-15T00:11:23.793Z,3.92
2023-09-15T00:12:27.381Z,4.82
2023-09-15T00:13:30.455Z,4.72
2023-09-15T00:14:33.121Z,7.30
2023-09-15T00:15:36.647Z,5.28
2023-09-15T00:16:45.559Z,5.78
2023-09-15T00:17:49.359Z,4.97
2023-09-15T00:18:52.256Z,5.85
2023-09-15T00:19:55.021Z,6.03
2023-09-15T00:20:57.870Z,3.75
2023-09-15T00:22:00.688Z,5.35
2023-09-15T00:23:04.997Z,5.38
2023-09-15T00:24:08.475Z,4.88
2023-09-15T00:25:11.502Z,4.15
2023-09-15T00:26:14.220Z,5.47
2023-09-15T00:27:17.856Z,4.53
2023-09-15T00:28:20.521Z,6.05
2023-09-15T00:29:23.186Z,5.20
2023-09-15T00:30:29.038Z,5.07
2023-09-15T00:31:33.352Z,7.60
2023-09-15T00:32:36.298Z,5.07
2023-09-15T00:33:39.004Z,6.25
2023-09-15T00:34:42.247Z,4.72
2023-09-15T00:35:48.082Z,4.25
2023-09-15T00:36:51.302Z,4.57
2023-09-15T00:37:56.351Z,5.53
2023-09-15T00:38:59.893Z,5.18
2023-09-15T00:40:05.311Z,4.35
2023-09-15T00:41:07.978Z,5.88
2023-09-15T00:42:10.654Z,4.32
2023-09-15T00:43:13.791Z,5.72
2023-09-15T00:44:16.523Z,4.78
2023-09-15T00:45:21.233Z,4.70
2023-09-15T00:46:24.178Z,4.70
2023-09-15T00:47:27.065Z,7.25
2023-09-15T00:48:30.142Z,4.93
2023-09-15T00:49:32.916Z,6.72
2023-09-15T00:50:35.754Z,4.15
2023-09-15T00:51:38.797Z,4.32
2023-09-15T00:52:46.385Z,5.05
2023-09-15T00:53:49.121Z,5.15
2023-09-15T00:54:52.273Z,5.43
2023-09-15T00:55:55.008Z,4.90
2023-09-15T00:57:00.866Z,5.50
2023-09-15T00:58:09.760Z,6.03
2023-09-15T00:59:12.721Z,6.43
2023-09-15T01:00:16.043Z,5.35
2023-09-15T01:01:19.507Z,5.60
2023-09-15T01:02:22.390Z,4.63
2023-09-15T01:03:29.962Z,4.47
2023-09-15T01:04:32.918Z,4.45
2023-09-15T01:05:37.296Z,4.90
2023-09-15T01:06:44.136Z,4.13
2023-09-15T01:07:54.776Z,4.43
2023-09-15T01:08:57.867Z,4.90
2023-09-15T01:10:01.731Z,4.28
2023-09-15T01:11:05.766Z,5.15
2023-09-15T01:12:09.902Z,5.35
2023-09-15T01:13:12.772Z,6.72
2023-09-15T01:14:15.502Z,5.20
2023-09-15T01:15:19.867Z,5.18
2023-09-15T01:16:45.501Z,5.30
2023-09-15T01:18:37.499Z,5.45
2023-09-15T01:19:54.650Z,4.97
2023-09-15T01:21:35.687Z,5.85
2023-09-15T01:22:52.996Z,6.07
2023-09-15T01:24:04.599Z,5.53
2023-09-15T01:25:16.385Z,9.15
2023-09-15T01:26:49.215Z,7.65
2023-09-15T01:28:10.432Z,6.47
2023-09-15T01:29:34.797Z,3.42
2023-09-15T01:30:39.460Z,6.65
2023-09-15T01:31:44.886Z,3.92
2023-09-15T01:33:52.583Z,4.25
2023-09-15T01:34:55.529Z,5.50
2023-09-15T01:35:58.260Z,4.35
2023-09-15T01:37:00.993Z,5.88
2023-09-15T01:38:04.367Z,5.10
2023-09-15T01:39:07.312Z,4.55
2023-09-15T01:40:10.881Z,5.60
2023-09-15T01:41:13.765Z,5.10
2023-09-15T01:42:16.502Z,4.20
2023-09-15T01:43:19.152Z,5.05
2023-09-15T01:44:21.857Z,3.20
2023-09-15T01:45:24.614Z,4.75
2023-09-15T01:46:27.529Z,4.53
2023-09-15T01:47:32.193Z,5.05
2023-09-15T01:48:36.696Z,3.50
2023-09-15T01:49:41.728Z,4.15
2023-09-15T01:50:45.603Z,4.68
2023-09-15T01:51:50.074Z,4.15
2023-09-15T01:52:54.400Z,5.15
2023-09-15T01:53:57.447Z,4.82
2023-09-15T01:55:04.368Z,5.65
2023-09-15T01:56:07.271Z,3.47
2023-09-15T01:57:09.925Z,4.55
2023-09-15T01:58:12.776Z,4.43
2023-09-15T01:59:16.112Z,5.07
2023-09-15T02:00:19.244Z,4.15
2023-09-15T02:01:22.086Z,4.18
2023-09-15T02:02:24.837Z,4.53
2023-09-15T02:03:27.600Z,6.05
2023-09-15T02:04:31.765Z,5.03
2023-09-15T02:05:34.442Z,4.57
2023-09-15T02:06:37.276Z,7.07
2023-09-15T02:07:39.969Z,4.20
2023-09-15T02:08:42.775Z,4.20
2023-09-15T02:09:45.981Z,3.40
2023-09-15T02:10:48.755Z,4.68
2023-09-15T02:11:51.502Z,4.25
2023-09-15T02:12:54.546Z,8.52
2023-09-15T02:13:57.372Z,5.25
2023-09-15T02:15:00.382Z,3.63
2023-09-15T02:16:04.054Z,5.75
2023-09-15T02:17:07.778Z,5.80
2023-09-15T02:18:11.366Z,6.25
2023-09-15T02:19:14.212Z,4.68
2023-09-15T02:20:20.026Z,3.88
2023-09-15T02:21:22.922Z,4.15
2023-09-15T02:22:27.906Z,5.15
2023-09-15T02:23:31.153Z,5.47
2023-09-15T02:24:33.946Z,5.32
2023-09-15T02:25:36.654Z,6.00
2023-09-15T02:26:41.135Z,4.47
2023-09-15T02:27:44.063Z,5.10
2023-09-15T02:28:46.927Z,5.00
2023-09-15T02:29:49.762Z,3.58
2023-09-15T02:30:53.316Z,6.57
2023-09-15T02:31:56.299Z,5.70
2023-09-15T02:32:59.055Z,6.10
2023-09-15T02:34:02.103Z,4.90
2023-09-15T02:35:05.354Z,5.07
2023-09-15T02:36:08.139Z,4.63
2023-09-15T02:37:10.944Z,3.70
2023-09-15T02:38:13.659Z,4.70
2023-09-15T02:39:16.652Z,4.70
2023-09-15T02:40:19.584Z,5.22
2023-09-15T02:41:23.560Z,8.23
2023-09-15T02:42:26.278Z,5.75
2023-09-15T02:43:30.172Z,5.07
2023-09-15T02:44:34.902Z,7.38
2023-09-15T02:45:38.206Z,4.43
2023-09-15T02:46:42.191Z,5.18
2023-09-15T02:47:45.151Z,4.68
2023-09-15T02:48:48.145Z,6.80
2023-09-15T02:49:51.080Z,5.97
2023-09-15T02:50:53.971Z,7.30
2023-09-15T02:51:58.415Z,5.00
2023-09-15T02:53:01.858Z,5.88
2023-09-15T02:54:05.055Z,7.75
2023-09-15T02:55:09.713Z,6.78
2023-09-15T02:56:12.403Z,4.68
2023-09-15T02:57:15.798Z,5.75
2023-09-15T02:58:18.965Z,4.90
2023-09-15T02:59:21.664Z,6.10
2023-09-15T03:00:24.441Z,5.00
2023-09-15T03:01:27.952Z,4.78
2023-09-15T03:02:30.955Z,6.18
2023-09-15T03:03:33.972Z,6.13
2023-09-15T03:04:36.747Z,4.63
2023-09-15T03:05:39.612Z,5.03
2023-09-15T03:06:42.558Z,5.80
2023-09-15T03:07:45.704Z,5.60
2023-09-15T03:08:50.841Z,6.30
2023-09-15T03:09:54.432Z,4.88
2023-09-15T03:10:57.371Z,5.97
2023-09-15T03:12:00.057Z,5.10
2023-09-15T03:13:05.191Z,4.90
2023-09-15T03:14:10.890Z,5.93
2023-09-15T03:15:13.620Z,5.75
2023-09-15T03:16:16.781Z,4.97
2023-09-15T03:17:23.079Z,5.03
2023-09-15T03:18:25.947Z,6.93
2023-09-15T03:19:29.257Z,6.38
2023-09-15T03:20:32.006Z,5.90
2023-09-15T03:21:35.158Z,8.02
2023-09-15T03:22:38.847Z,4.95
2023-09-15T03:23:41.788Z,5.30
2023-09-15T03:24:44.758Z,6.38
2023-09-15T03:25:47.490Z,6.43
2023-09-15T03:26:50.371Z,5.53
2023-09-15T03:27:54.439Z,9.77
2023-09-15T03:28:57.303Z,5.60
2023-09-15T03:30:00.465Z,4.32
2023-09-15T03:31:07.273Z,5.60
2023-09-15T03:32:10.148Z,7.05
2023-09-15T03:33:12.832Z,8.40
2023-09-15T03:34:15.650Z,6.30
2023-09-15T03:35:18.396Z,6.40
2023-09-15T03:36:22.681Z,6.28
2023-09-15T03:37:25.643Z,5.20
2023-09-15T03:38:28.676Z,5.47
2023-09-15T03:39:32.745Z,5.00
2023-09-15T03:40:35.740Z,5.55
2023-09-15T03:41:38.975Z,8.07
2023-09-15T03:42:41.848Z,5.07
2023-09-15T03:43:44.917Z,6.13
2023-09-15T03:44:48.217Z,6.80
2023-09-15T03:45:53.908Z,6.38
2023-09-15T03:46:58.020Z,5.18
2023-09-15T03:48:01.099Z,6.22
2023-09-15T03:49:05.339Z,6.30
2023-09-15T03:50:10.789Z,9.40
2023-09-15T03:52:16.639Z,6.30
2023-09-15T03:53:19.373Z,6.13
2023-09-15T03:54:22.057Z,7.47
2023-09-15T03:55:24.845Z,5.70
2023-09-15T03:56:28.151Z,5.25
2023-09-15T03:57:31.651Z,7.43
2023-09-15T03:58:34.554Z,6.00
2023-09-15T03:59:37.644Z,5.65
2023-09-15T04:00:40.230Z,6.15
2023-09-15T04:01:43.019Z,7.10
2023-09-15T04:02:46.156Z,5.18
2023-09-15T04:03:49.129Z,4.93
2023-09-15T04:04:52.732Z,6.82
2023-09-15T04:05:55.547Z,5.72
2023-09-15T04:06:58.345Z,5.88
2023-09-15T04:08:01.081Z,8.35
2023-09-15T04:09:13.725Z,6.45
2023-09-15T04:10:16.594Z,8.77
2023-09-15T04:11:19.378Z,8.15
2023-09-15T04:12:22.017Z,6.07
2023-09-15T04:13:24.869Z,7.40
2023-09-15T04:14:27.639Z,6.25
2023-09-15T04:15:30.707Z,6.07
2023-09-15T04:16:34.040Z,8.45
2023-09-15T04:17:36.716Z,7.68
2023-09-15T04:18:39.550Z,6.80
2023-09-15T04:19:42.274Z,6.55
2023-09-15T04:20:46.731Z,8.90
2023-09-15T04:21:51.363Z,4.90
2023-09-15T04:22:54.107Z,6.03
2023-09-15T04:23:57.491Z,6.25
2023-09-15T04:25:00.237Z,7.60
2023-09-15T04:26:02.982Z,7.00
2023-09-15T04:27:05.861Z,6.13
2023-09-15T04:28:08.985Z,6.70
2023-09-15T04:29:11.838Z,7.15
2023-09-15T04:30:14.820Z,9.55
2023-09-15T04:31:26.772Z,6.25
2023-09-15T04:32:29.965Z,5.78
2023-09-15T04:33:33.450Z,6.35
2023-09-15T04:34:36.395Z,8.52
2023-09-15T04:35:39.105Z,7.38
2023-09-15T04:36:42.176Z,5.90
2023-09-15T04:37:45.075Z,6.40
2023-09-15T04:38:48.297Z,7.95
2023-09-15T04:39:51.488Z,8.07
2023-09-15T04:40:54.672Z,6.75
2023-09-15T04:41:57.485Z,8.20
2023-09-15T04:43:00.929Z,8.77
2023-09-15T04:44:06.658Z,6.72
2023-09-15T04:45:09.938Z,7.72
2023-09-15T04:46:12.823Z,9.30
2023-09-15T04:47:31.400Z,7.55
2023-09-15T04:48:36.215Z,8.20
2023-09-15T04:49:39.019Z,7.10
2023-09-15T04:50:41.963Z,9.20
2023-09-15T04:51:45.200Z,10.45
2023-09-15T04:52:48.276Z,9.10
2023-09-15T04:53:52.044Z,8.38
2023-09-15T04:54:57.275Z,9.60
2023-09-15T04:56:00.385Z,10.88
2023-09-15T04:57:03.195Z,7.25
2023-09-15T04:58:05.966Z,8.15
2023-09-15T04:59:17.054Z,6.03
2023-09-15T05:00:25.267Z,6.63
2023-09-15T05:01:36.501Z,7.28
2023-09-15T05:02:43.820Z,6.28
2023-09-15T05:03:46.790Z,9.52
2023-09-15T05:04:51.217Z,10.13
2023-09-15T05:05:53.990Z,7.13
2023-09-15T05:06:57.397Z,8.77
2023-09-15T05:08:00.422Z,9.38
2023-09-15T05:09:11.475Z,10.75
2023-09-15T05:10:14.459Z,6.03
2023-09-15T05:11:17.322Z,7.68
2023-09-15T05:12:20.187Z,7.07
2023-09-15T05:13:22.977Z,7.85
2023-09-15T05:14:25.675Z,7.35
2023-09-15T05:15:28.472Z,8.40
2023-09-15T05:16:31.658Z,6.43
2023-09-15T05:17:34.502Z,6.18
2023-09-15T05:18:37.229Z,9.27
2023-09-15T05:19:40.079Z,6.57
2023-09-15T05:20:42.789Z,5.60
2023-09-15T05:21:46.118Z,7.00
2023-09-15T05:22:48.753Z,10.73
2023-09-15T05:23:52.221Z,6.75
2023-09-15T05:24:56.665Z,7.97
2023-09-15T05:25:59.718Z,7.13
2023-09-15T05:27:02.579Z,7.20
2023-09-15T05:28:06.373Z,7.88
2023-09-15T05:29:09.990Z,6.40
2023-09-15T05:30:14.429Z,7.72
2023-09-15T05:31:25.129Z,7.47
2023-09-15T05:32:28.224Z,6.15
2023-09-15T05:33:31.292Z,8.25
2023-09-15T05:34:34.098Z,11.38
2023-09-15T05:35:37.771Z,8.13
2023-09-15T05:36:45.035Z,7.47
2023-09-15T05:37:50.580Z,6.40
2023-09-15T05:38:54.073Z,7.22
2023-09-15T05:39:59.270Z,7.90
2023-09-15T05:41:02.614Z,9.98
2023-09-15T05:42:05.948Z,9.15
2023-09-15T05:43:11.605Z,6.55
2023-09-15T05:44:17.696Z,15.00
2023-09-15T05:45:20.365Z,16.23
2023-09-15T05:46:23.275Z,8.85
2023-09-15T05:47:26.620Z,10.20
2023-09-15T05:48:29.552Z,7.85
2023-09-15T05:49:35.700Z,6.78
2023-09-15T05:50:43.311Z,9.07
2023-09-15T05:51:49.670Z,5.80
2023-09-15T05:52:52.394Z,7.50
2023-09-15T05:53:54.998Z,7.32
2023-09-15T05:54:57.744Z,7.00
2023-09-15T05:56:00.492Z,7.68
2023-09-15T05:57:05.812Z,6.85
2023-09-15T05:58:08.618Z,8.82
2023-09-15T05:59:11.365Z,6.55
2023-09-15T06:00:14.835Z,8.38
2023-09-15T06:01:20.663Z,9.05
2023-09-15T06:02:23.558Z,9.25
2023-09-15T06:03:29.354Z,6.80
2023-09-15T06:04:32.388Z,8.80
2023-09-15T06:05:37.082Z,7.45
2023-09-15T06:06:42.180Z,8.48
2023-09-15T06:07:46.330Z,6.93
2023-09-15T06:08:49.279Z,8.75
2023-09-15T06:09:52.313Z,9.93
2023-09-15T06:10:55.240Z,6.72
2023-09-15T06:11:57.907Z,7.30
2023-09-15T06:13:00.608Z,8.23
2023-09-15T06:14:03.384Z,7.05
2023-09-15T06:15:06.761Z,7.28
2023-09-15T06:16:10.087Z,8.40
2023-09-15T06:17:13.830Z,11.80
2023-09-15T06:18:16.818Z,9.73
2023-09-15T06:19:20.745Z,7.68
2023-09-15T06:20:24.883Z,9.13
2023-09-15T06:21:29.197Z,7.50
2023-09-15T06:22:35.728Z,8.30
2023-09-15T06:23:45.238Z,9.32
2023-09-15T06:24:49.359Z,7.80
2023-09-15T06:25:55.300Z,8.85
2023-09-15T06:26:57.977Z,11.00
2023-09-15T06:29:08.012Z,5.93
2023-09-15T06:30:11.305Z,9.20
2023-09-15T06:31:14.701Z,8.02
2023-09-15T06:32:17.425Z,9.90
2023-09-15T06:33:20.659Z,7.18
2023-09-15T06:34:23.389Z,10.50
2023-09-15T06:35:27.152Z,11.05
2023-09-15T06:36:30.116Z,10.52
2023-09-15T06:37:32.849Z,8.60
2023-09-15T06:38:35.607Z,8.02
2023-09-15T06:39:38.350Z,10.18
2023-09-15T06:40:41.082Z,8.07
2023-09-15T06:41:44.336Z,7.75
2023-09-15T06:42:58.308Z,8.55
2023-09-15T06:44:00.970Z,8.65
2023-09-15T06:45:04.950Z,7.85
2023-09-15T06:46:07.795Z,6.82
2023-09-15T06:47:10.540Z,6.32
2023-09-15T06:48:13.649Z,10.40
2023-09-15T06:49:22.598Z,7.78
2023-09-15T06:50:25.397Z,9.38
2023-09-15T06:51:29.126Z,7.68
2023-09-15T06:52:32.380Z,6.38
2023-09-15T06:53:35.109Z,10.68
2023-09-15T06:54:37.722Z,7.35
2023-09-15T06:55:40.486Z,9.25
2023-09-15T06:56:43.150Z,7.93
2023-09-15T06:57:45.957Z,7.75
2023-09-15T06:58:49.348Z,7.03
2023-09-15T06:59:53.514Z,6.25
2023-09-15T07:00:57.235Z,8.63
2023-09-15T07:02:04.172Z,9.57
2023-09-15T07:03:06.962Z,6.68
2023-09-15T07:04:10.458Z,6.95
2023-09-15T07:05:13.336Z,5.95
2023-09-15T07:06:16.211Z,7.40
2023-09-15T07:07:18.997Z,7.40
2023-09-15T07:08:21.652Z,6.30
2023-09-15T07:09:25.333Z,7.97
2023-09-15T07:10:28.174Z,8.30
2023-09-15T07:11:30.905Z,6.93
2023-09-15T07:12:33.603Z,8.15
2023-09-15T07:13:36.538Z,8.13
2023-09-15T07:14:39.241Z,8.98
2023-09-15T07:15:41.927Z,9.15
2023-09-15T07:16:44.914Z,8.35
2023-09-15T07:17:47.730Z,8.95
2023-09-15T07:18:50.954Z,11.00
2023-09-15T07:19:53.685Z,8.23
2023-09-15T07:20:56.385Z,8.10
2023-09-15T07:21:59.048Z,7.93
2023-09-15T07:23:01.788Z,9.57
2023-09-15T07:24:06.284Z,9.23
2023-09-15T07:25:09.144Z,7.50
2023-09-15T07:26:11.954Z,7.45
2023-09-15T07:27:14.761Z,9.10
2023-09-15T07:28:17.561Z,8.55
2023-09-15T07:29:20.434Z,9.75
2023-09-15T07:30:23.661Z,8.55
2023-09-15T07:31:26.498Z,8.52
2023-09-15T07:32:29.250Z,8.65
2023-09-15T07:33:33.067Z,10.27
2023-09-15T07:34:35.733Z,9.02
2023-09-15T07:35:38.523Z,7.03
2023-09-15T07:36:41.312Z,8.63
2023-09-15T07:37:44.065Z,8.93
2023-09-15T07:38:47.891Z,8.43
2023-09-15T07:39:50.548Z,10.23
2023-09-15T07:40:55.401Z,7.45
2023-09-15T07:41:59.049Z,7.53
2023-09-15T07:43:01.955Z,8.55
2023-09-15T07:44:04.918Z,8.60
2023-09-15T07:45:08.635Z,9.63
2023-09-15T07:46:13.737Z,8.25
2023-09-15T07:47:19.176Z,8.52
2023-09-15T07:48:24.704Z,8.57
2023-09-15T07:50:30.108Z,8.45
2023-09-15T07:51:33.659Z,11.45
2023-09-15T07:52:36.433Z,12.75
2023-09-15T07:53:39.761Z,8.95
2023-09-15T07:54:42.528Z,9.10
2023-09-15T07:55:45.235Z,7.53
2023-09-15T07:56:48.031Z,9.77
2023-09-15T07:57:50.849Z,8.38
2023-09-15T07:58:53.702Z,10.38
2023-09-15T07:59:56.536Z,7.25
2023-09-15T08:00:59.280Z,10.57
2023-09-15T08:02:02.103Z,8.15
2023-09-15T08:03:05.350Z,9.70
2023-09-15T08:04:08.109Z,10.13
2023-09-15T08:05:10.896Z,8.05
2023-09-15T08:06:15.125Z,7.93
2023-09-15T08:07:17.942Z,9.75
2023-09-15T08:08:20.668Z,9.20
2023-09-15T08:09:23.752Z,6.72
2023-09-15T08:10:28.017Z,7.35
2023-09-15T08:11:35.480Z,6.80
2023-09-15T08:12:40.203Z,7.78
2023-09-15T08:13:42.964Z,6.50
2023-09-15T08:14:45.762Z,8.13
2023-09-15T08:15:52.913Z,5.78
2023-09-15T08:16:55.858Z,6.60
2023-09-15T08:17:59.446Z,6.70
2023-09-15T08:19:02.449Z,4.55
2023-09-15T08:20:06.027Z,6.03
2023-09-15T08:21:08.846Z,5.57
2023-09-15T08:22:11.667Z,6.93
2023-09-15T08:23:14.828Z,6.60
2023-09-15T08:24:17.628Z,6.57
2023-09-15T08:25:20.597Z,9.38
2023-09-15T08:26:24.672Z,7.43
2023-09-15T08:27:29.822Z,5.97
2023-09-15T08:28:32.703Z,5.93
2023-09-15T08:29:35.536Z,9.15
2023-09-15T08:30:38.334Z,12.25
2023-09-15T08:31:41.947Z,8.43
2023-09-15T08:32:44.953Z,9.43
2023-09-15T08:33:47.897Z,7.88
2023-09-15T08:34:50.751Z,8.25
2023-09-15T08:35:53.578Z,9.05
2023-09-15T08:36:56.305Z,7.63
2023-09-15T08:37:58.945Z,13.52
2023-09-15T08:39:02.153Z,10.48
2023-09-15T08:40:06.456Z,6.20
2023-09-15T08:41:22.442Z,10.95
2023-09-15T08:42:28.450Z,10.80
2023-09-15T08:43:34.361Z,9.52
2023-09-15T08:44:39.290Z,8.50
2023-09-15T08:45:48.651Z,7.85
2023-09-15T08:46:51.599Z,6.95
2023-09-15T08:47:59.471Z,6.68
2023-09-15T08:49:02.761Z,9.20
2023-09-15T08:50:06.706Z,7.55
2023-09-15T08:51:10.704Z,6.03
2023-09-15T08:52:19.108Z,7.50
2023-09-15T08:53:22.921Z,7.70
2023-09-15T08:54:26.012Z,11.85
2023-09-15T08:55:30.008Z,8.82
2023-09-15T08:56:33.655Z,6.78
2023-09-15T08:57:40.025Z,7.60
2023-09-15T08:58:43.395Z,9.32
2023-09-15T08:59:46.825Z,8.50
2023-09-15T09:00:50.264Z,6.57
2023-09-15T09:01:53.050Z,8.50
2023-09-15T09:02:55.938Z,7.18
2023-09-15T09:03:58.892Z,6.32
2023-09-15T09:05:03.374Z,8.50
2023-09-15T09:06:12.223Z,10.52
2023-09-15T09:07:17.340Z,12.15
2023-09-15T09:08:23.064Z,8.68
2023-09-15T09:09:26.536Z,8.80
2023-09-15T09:10:29.362Z,7.93
2023-09-15T09:11:33.352Z,10.40
2023-09-15T09:12:36.085Z,9.18
2023-09-15T09:13:44.552Z,9.63
2023-09-15T09:14:56.451Z,8.20
2023-09-15T09:15:59.348Z,10.15
2023-09-15T09:17:03.502Z,9.60
2023-09-15T09:18:17.636Z,9.15
2023-09-15T09:19:20.438Z,10.55
2023-09-15T09:20:28.032Z,8.80
2023-09-15T09:21:33.289Z,7.63
2023-09-15T09:22:36.273Z,8.35
2023-09-15T09:23:39.171Z,6.68
2023-09-15T09:24:42.183Z,7.93
2023-09-15T09:25:45.164Z,6.80
2023-09-15T09:26:57.813Z,7.63
2023-09-15T09:28:01.632Z,6.72
2023-09-15T09:29:04.992Z,7.07
2023-09-15T09:30:08.998Z,10.10
2023-09-15T09:31:11.967Z,6.05
2023-09-15T09:32:15.770Z,10.25
2023-09-15T09:33:22.151Z,7.35
2023-09-15T09:34:44.287Z,11.38
2023-09-15T09:35:49.858Z,11.02
2023-09-15T09:36:54.366Z,10.05
2023-09-15T09:38:01.386Z,9.07
2023-09-15T09:39:04.895Z,11.93
2023-09-15T09:40:08.453Z,8.40
2023-09-15T09:41:13.083Z,10.48
2023-09-15T09:42:16.026Z,7.07
2023-09-15T09:43:20.391Z,8.10
2023-09-15T09:44:23.394Z,8.75
2023-09-15T09:45:31.790Z,9.15
2023-09-15T09:46:34.764Z,12.13
2023-09-15T09:47:37.764Z,6.55
2023-09-15T09:48:42.873Z,8.75
2023-09-15T09:49:46.170Z,10.70
2023-09-15T09:50:52.451Z,12.68
2023-09-15T09:51:57.295Z,9.75
2023-09-15T09:53:00.115Z,13.57
2023-09-15T09:54:03.396Z,8.75
2023-09-15T09:55:09.350Z,7.40
2023-09-15T09:56:12.163Z,9.80
2023-09-15T09:57:16.777Z,12.30
2023-09-15T09:58:19.548Z,9.50
2023-09-15T09:59:22.714Z,7.55
2023-09-15T10:00:25.587Z,8.00
2023-09-15T10:01:31.133Z,16.13
2023-09-15T10:02:36.566Z,11.52
2023-09-15T10:03:42.349Z,8.68
2023-09-15T10:04:46.640Z,9.77
2023-09-15T10:05:50.687Z,6.55
2023-09-15T10:06:54.619Z,7.72
2023-09-15T10:07:57.459Z,6.88
2023-09-15T10:09:00.752Z,8.20
2023-09-15T10:10:07.349Z,8.48
2023-09-15T10:11:11.058Z,7.30
2023-09-15T10:12:15.756Z,8.68
2023-09-15T10:13:19.327Z,10.30
2023-09-15T10:14:23.539Z,12.82
2023-09-15T10:15:26.732Z,10.63
2023-09-15T10:16:34.500Z,5.38
2023-09-15T10:17:39.013Z,7.18
2023-09-15T10:18:42.077Z,8.00
2023-09-15T10:19:49.358Z,6.35
2023-09-15T10:20:56.428Z,7.47
2023-09-15T10:22:01.263Z,6.18
2023-09-15T10:23:05.984Z,6.20
2023-09-15T10:24:13.582Z,6.22
2023-09-15T10:25:22.510Z,5.65
2023-09-15T10:26:25.808Z,9.25
2023-09-15T10:27:29.402Z,6.88
2023-09-15T10:28:42.048Z,5.82
2023-09-15T10:29:47.170Z,6.25
2023-09-15T10:30:57.008Z,7.07
2023-09-15T10:32:05.565Z,5.38
2023-09-15T10:33:09.628Z,7.47
2023-09-15T10:34:13.080Z,7.55
2023-09-15T10:35:18.362Z,5.85
2023-09-15T10:36:22.532Z,5.80
2023-09-15T10:37:25.136Z,5.85
2023-09-15T10:38:29.602Z,4.80
2023-09-15T10:39:40.705Z,6.13
2023-09-15T10:40:48.722Z,7.45
2023-09-15T10:41:54.776Z,5.53
2023-09-15T10:43:07.764Z,4.38
2023-09-15T10:44:11.272Z,5.10
2023-09-15T10:45:14.553Z,5.05
2023-09-15T10:46:17.474Z,4.10
2023-09-15T10:47:22.395Z,4.10
2023-09-15T10:48:45.526Z,4.32
2023-09-15T10:49:55.561Z,5.20
2023-09-15T10:51:07.271Z,5.57
2023-09-15T10:52:10.210Z,6.85
2023-09-15T10:53:15.426Z,5.07
2023-09-15T10:54:20.309Z,5.63
2023-09-15T10:55:22.941Z,4.35
2023-09-15T10:56:25.894Z,5.35
2023-09-15T10:57:29.837Z,5.32
2023-09-15T10:58:34.034Z,5.40
2023-09-15T10:59:37.608Z,4.63
2023-09-15T11:00:41.087Z,6.43
2023-09-15T11:01:45.566Z,3.42
2023-09-15T11:02:48.492Z,5.50
2023-09-15T11:03:52.591Z,4.20
2023-09-15T11:04:55.455Z,4.28
2023-09-15T11:05:59.714Z,4.20
2023-09-15T11:07:06.262Z,4.22
2023-09-15T11:08:10.586Z,4.68
2023-09-15T11:09:15.274Z,5.32
2023-09-15T11:10:17.884Z,5.25
2023-09-15T11:11:20.974Z,4.15
2023-09-15T11:12:23.556Z,4.13
2023-09-15T11:13:26.846Z,3.33
2023-09-15T11:14:29.434Z,4.15
2023-09-15T11:15:33.516Z,4.05
2023-09-15T11:16:36.365Z,3.75
2023-09-15T11:17:39.182Z,3.80
2023-09-15T11:18:42.549Z,4.38
2023-09-15T11:19:45.294Z,4.45
2023-09-15T11:20:48.292Z,3.28
2023-09-15T11:21:51.197Z,3.63
2023-09-15T11:22:58.256Z,2.83
2023-09-15T11:24:01.251Z,5.10
2023-09-15T11:25:16.433Z,5.25
2023-09-15T11:26:28.431Z,3.42
2023-09-15T11:27:34.468Z,5.80
2023-09-15T11:28:38.322Z,4.75
2023-09-15T11:29:46.085Z,3.97
2023-09-15T11:30:53.885Z,5.15
2023-09-15T11:31:59.426Z,5.63
2023-09-15T11:33:06.669Z,6.90
2023-09-15T11:34:09.919Z,5.68
2023-09-15T11:35:13.882Z,3.20
2023-09-15T11:36:18.508Z,6.97
2023-09-15T11:37:21.951Z,5.07
2023-09-15T11:38:25.664Z,5.93
2023-09-15T11:39:30.464Z,3.88
2023-09-15T11:40:34.360Z,3.70
2023-09-15T11:41:37.126Z,3.45
2023-09-15T11:42:39.770Z,3.33
2023-09-15T11:43:44.882Z,6.63
2023-09-15T11:44:47.820Z,5.18
2023-09-15T11:45:52.690Z,2.50
2023-09-15T11:46:57.418Z,2.58
2023-09-15T11:48:02.023Z,3.47
2023-09-15T11:49:05.574Z,4.03
2023-09-15T11:50:09.088Z,5.47
2023-09-15T11:51:14.251Z,4.07
2023-09-15T11:52:17.818Z,4.53
2023-09-15T11:53:27.289Z,3.63
2023-09-15T11:54:31.428Z,4.53
2023-09-15T11:55:34.623Z,3.42
2023-09-15T11:56:38.348Z,3.03
2023-09-15T11:57:41.553Z,5.72
2023-09-15T11:58:44.317Z,6.72
2023-09-15T11:59:48.047Z,3.38
2023-09-15T12:00:51.344Z,5.13
2023-09-15T12:01:58.307Z,3.85
2023-09-15T12:03:04.447Z,4.88
2023-09-15T12:04:12.182Z,3.38
2023-09-15T12:05:20.750Z,4.72
2023-09-15T12:06:23.587Z,3.90
2023-09-15T12:07:26.550Z,4.43
2023-09-15T12:08:29.515Z,3.58
2023-09-15T12:09:32.211Z,2.80
2023-09-15T12:10:34.935Z,2.72
2023-09-15T12:11:48.263Z,5.63
2023-09-15T12:12:56.262Z,5.18
2023-09-15T12:14:10.168Z,3.35
2023-09-15T12:15:18.233Z,3.22
2023-09-15T12:16:32.931Z,2.58
2023-09-15T12:17:36.165Z,2.30
2023-09-15T12:18:39.423Z,2.88
2023-09-15T12:19:42.350Z,3.42
2023-09-15T12:20:49.545Z,7.63
2023-09-15T12:21:56.672Z,2.72
2023-09-15T12:22:59.438Z,2.78
2023-09-15T12:24:12.528Z,3.03
2023-09-15T12:25:17.786Z,3.13
2023-09-15T12:26:20.455Z,3.33
2023-09-15T12:27:23.725Z,2.45
2023-09-15T12:28:26.405Z,2.97
2023-09-15T12:29:29.469Z,4.28
2023-09-15T12:30:32.487Z,2.53
2023-09-15T12:31:43.529Z,2.50
2023-09-15T12:32:48.415Z,3.13
2023-09-15T12:33:56.169Z,3.95
2023-09-15T12:34:59.919Z,2.80
2023-09-15T12:36:07.017Z,2.83
2023-09-15T12:37:11.100Z,2.33
2023-09-15T12:38:13.713Z,3.00
2023-09-15T12:39:17.423Z,3.22
2023-09-15T12:40:20.303Z,3.15
2023-09-15T12:41:25.140Z,2.97
2023-09-15T12:42:27.916Z,2.33
2023-09-15T12:43:30.594Z,2.30
2023-09-15T12:44:33.338Z,2.13
2023-09-15T12:45:35.977Z,2.35
2023-09-15T12:46:38.750Z,4.20
2023-09-15T12:47:41.523Z,2.53
2023-09-15T12:48:45.212Z,2.33
2023-09-15T12:49:47.947Z,2.65
2023-09-15T12:50:50.691Z,1.63
2023-09-15T12:51:53.487Z,3.20
2023-09-15T12:52:56.042Z,3.83
2023-09-15T12:53:58.741Z,1.88
2023-09-15T12:55:01.379Z,2.58
2023-09-15T12:56:04.081Z,2.50
2023-09-15T12:57:06.863Z,1.88
2023-09-15T12:58:09.662Z,2.72
2023-09-15T12:59:12.366Z,2.42
2023-09-15T13:00:16.435Z,2.25
2023-09-15T13:01:19.099Z,2.50
2023-09-15T13:02:21.886Z,2.42
2023-09-15T13:03:25.642Z,3.63
2023-09-15T13:04:28.798Z,2.30
2023-09-15T13:05:31.693Z,1.88
2023-09-15T13:06:34.387Z,4.38
2023-09-15T13:07:43.845Z,2.47
2023-09-15T13:08:46.568Z,2.40
2023-09-15T13:09:49.176Z,2.20
2023-09-15T13:10:51.827Z,3.92
2023-09-15T13:11:58.995Z,2.45
2023-09-15T13:13:01.728Z,3.58
2023-09-15T13:14:05.086Z,3.42
2023-09-15T13:15:09.613Z,2.53
2023-09-15T13:16:12.413Z,2.55
2023-09-15T13:17:15.188Z,3.58
2023-09-15T13:18:20.452Z,3.08
2023-09-15T13:19:23.175Z,3.03
2023-09-15T13:20:26.002Z,1.77
2023-09-15T13:21:34.764Z,1.83
2023-09-15T13:22:38.496Z,3.78
2023-09-15T13:23:41.271Z,2.53
2023-09-15T13:24:44.121Z,2.75
2023-09-15T13:25:46.781Z,2.30
2023-09-15T13:26:49.525Z,1.55
2023-09-15T13:27:52.257Z,3.55
2023-09-15T13:28:54.899Z,4.75
2023-09-15T13:30:01.541Z,3.88
2023-09-15T13:31:05.037Z,3.88
2023-09-15T13:32:07.869Z,2.95
2023-09-15T13:33:10.602Z,2.03
2023-09-15T13:34:13.255Z,1.42
2023-09-15T13:35:16.078Z,2.95
2023-09-15T13:36:22.899Z,2.10
2023-09-15T13:37:25.495Z,3.60
2023-09-15T13:38:28.153Z,1.38
2023-09-15T13:39:30.794Z,2.15
2023-09-15T13:40:33.855Z,2.30
2023-09-15T13:41:36.639Z,3.20
2023-09-15T13:42:39.524Z,2.55
2023-09-15T13:43:42.243Z,2.22
2023-09-15T13:44:44.980Z,2.90
2023-09-15T13:45:54.160Z,2.63
2023-09-15T13:46:57.627Z,2.30
2023-09-15T13:48:00.295Z,2.35
2023-09-15T13:49:03.594Z,2.00
2023-09-15T13:50:08.265Z,2.20
2023-09-15T13:51:11.060Z,3.08
2023-09-15T13:52:13.895Z,3.38
2023-09-15T13:53:16.670Z,2.13
2023-09-15T13:54:20.172Z,2.47
2023-09-15T13:55:29.643Z,30.65
2023-09-15T13:56:41.731Z,2.35
2023-09-15T13:57:44.432Z,2.47
2023-09-15T13:58:52.229Z,2.38
2023-09-15T13:59:56.747Z,3.70
2023-09-15T14:01:02.645Z,2.90
2023-09-15T14:02:05.342Z,1.77
2023-09-15T14:03:08.087Z,2.47
2023-09-15T14:04:11.605Z,2.15
2023-09-15T14:05:14.281Z,1.55
2023-09-15T14:06:17.500Z,2.67
2023-09-15T14:07:20.269Z,2.72
2023-09-15T14:08:23.456Z,1.98
2023-09-15T14:09:26.154Z,4.20
2023-09-15T14:10:28.866Z,2.47
2023-09-15T14:11:31.468Z,4.18
2023-09-15T14:12:34.409Z,1.95
2023-09-15T14:13:37.086Z,1.63
2023-09-15T14:14:40.413Z,3.45
2023-09-15T14:15:49.476Z,4.20
2023-09-15T14:16:52.880Z,2.50
2023-09-15T14:17:55.598Z,3.88
2023-09-15T14:18:58.375Z,2.47